Burnsville, NC (28714)

12:04 AM EDT on September 03, 2015 (GMT -0400)
Mountain Air | | Change Station
CLOSE
Current Station
Personal Weather Station
Location: Burnsville, NC
Elevation: 4390 ft
Nearby Weather Stations

Elev 4390 ft 35.89 °N, 82.29 °W | Updated 4 minutes ago

Partly Cloudy
Partly Cloudy
66.1 °F
Feels Like 66.1 °F
N
0.0
Wind Variable Wind from NW
Gusts 0.0 mph

Today
High -- | Low -- °F
--% Chance of Precip.
Yesterday
High -- | Low -- °F
Precip. -- in
7:02 AM 7:54 PM
Waning Gibbous, 74% visible
Pressure 30.02 in
Visibility 10.0 miles
Clouds Few 10000 ft
Dew Point 62 °F
Humidity 86%
Rainfall Not available.
Snow Depth Not available.
UV 0 out of 12
Pollen 9.00 out of 12
Air Quality Not available.
Flu Activity Not available.
METAR KAVL 030354Z AUTO 00000KT 10SM FEW100 23/20 A3011 RMK AO2 SLP166 T02280200
Pressure 30.02 in
Visibility 10.0 miles
Clouds Few 10000 ft
Dew Point 62 °F
Humidity 86%
Rainfall Not available.
Snow Depth Not available.
UV 0 out of 12
Pollen 9.00 out of 12
Air Quality Not available.
Flu Activity Not available.
METAR KAVL 030354Z AUTO 00000KT 10SM FEW100 23/20 A3011 RMK AO2 SLP166 T02280200

10-Day Weather Forecast

×

Almanac

Astronomy

Sep. 03, 2015 Rise Set
Actual Time
Civil Twilight
Nautical Twilight
Astronomical Twilight
Moon
Length of Visible Light
Length of Day
Tomorrow will be .
, % of the Moon is Illuminated

Today's Extremes

State Highs State Lows

Community

WunderPhotos

Upload Photos

1,851,908 photos uploaded!

WunderBlogs® & News

Nearby

Air Quality

  Air Quality AQ Index Pollutant
Not available.

Snow Depth

Station Depth Elevation

Earthquake Activity

City Distance Mag. Time & Date
Minimum magnitude displayed is 2.5.

Coastal Water Temperatures

Place Temperature

Stations

Nearby Weather Stations

Station Location Temp. Windchill Dew Point Humidity Wind Precip. Elev Updated Type